Tin City LRRS, AK

9:58 PM AKDT on October 22, 2014 (GMT -0800)
New Shishmaref | Change Station
CLOSE
Current Station
Airport
Location: Shishmaref,
Elevation: 13 ft
Nearby Weather Stations
Active Advisory: High Surf Advisory

Elev 13 ft 66.25 °N, 166.09 °W | Updated 2 minutes ago

Overcast
Overcast
30 °F
Feels Like 27 °F
N
4
Wind Variable Wind from NNW

Today
High -- | Low -- °F
--% Chance of Precip.
Yesterday
High -- | Low -- °F
Precip. -- in
10:30 AM 7:20 PM
Waning Crescent, 0% visible
Pressure 29.87 in
Visibility 10.0 miles
Clouds Overcast 2600 ft
Windchill 27 °F
Dew Point 21 °F
Humidity 69%
Rainfall 0.00 in
Snow Depth Not available.
UV 0 out of 12
Pollen Not available.
Air Quality Not available.
Flu Activity Sporadic
METAR PASH 230556Z AUTO 33003KT 10SM OVC026 M01/M06 A2987 RMK AO1 10000 21010 57003

More Conditions Fewer Conditions

Pressure 29.87 in
Visibility 10.0 miles
Clouds Overcast 2600 ft
Windchill 27 °F
Dew Point 21 °F
Humidity 69%
Rainfall 0.00 in
Snow Depth Not available.
UV 0 out of 12
Pollen Not available.
Air Quality Not available.
Flu Activity Sporadic
METAR PASH 230556Z AUTO 33003KT 10SM OVC026 M01/M06 A2987 RMK AO1 10000 21010 57003

More Conditions Fewer Conditions

10-Day Weather Forecast

Almanac

Astronomy

Oct. 22, 2014 Rise Set
Actual Time 10:30 AM AKDT 7:20 PM AKDT
Civil Twilight 9:37 AM AKDT 8:13 PM AKDT
Nautical Twilight 8:38 AM AKDT 9:12 PM AKDT
Astronomical Twilight 7:39 AM AKDT 10:10 PM AKDT
Moon 9:01 AM AKDT (10/22) 7:09 PM AKDT (10/22)
Length of Visible Light 10h 36m
Length of Day
8h 49m
Tomorrow will be 7m 0s shorter.
Waning Crescent, 0% of the Moon is Illuminated
Oct 23
Waning Crescent
Oct 23
New
Oct 30
First Quarter
Nov 6
Full
Nov 14
Last Quarter

Yesterday's Extremes

State Highs State Lows

Community

WunderPhotos

Upload Photos

1,764,188 photos uploaded!

Nearby

Snow Depth

Station Depth Elevation
Rocky Point 3 in 500 ft
Gobblers Knob 1 in 2030 ft
Coldfoot 5 in 1040 ft
Atigun Pass 15 in 4800 ft
Imnaviat Creek 22 in 3050 ft

Earthquake Activity

City Distance Mag. Time & Date
No recent earthquake activity has been reported nearby.
Minimum magnitude displayed is 2.5.

Coastal Water Temperatures

Place Temperature
No Stations Reporting

Nearby Weather Stations